LFOH

Details ICAO LFOH (LEH)
Name Le Havre-Octeville
Region France
Timezone Europe/Paris (UTC+2.0)
Plans Departing 78
Arriving 75
Stats Elevation 311 ft / 95 m (AMSL)
Location 49.534079° 0.088457°
Runways 1
Magnetic Variation 0.116° W
Sunrise 2018-05-27 04:03:19 UTC / 2018-05-27 06:03:19 Local
Sunset 2018-05-27 19:53:10 UTC / 2018-05-27 21:53:10 Local
Advertisement - Login to hide

Runways

ID Width Length Bearing (true) Bearing (mag) Surface Threshold Offset Overrun Length
04 131 ft / 40 m 7,553 ft / 2,302 m 43.07° 43.19° Asphalt 0 ft / 0 m 0 ft / 0 m
22 131 ft / 40 m 7,553 ft / 2,302 m 223.08° 223.20° Asphalt 0 ft / 0 m 0 ft / 0 m

Approach Navaids

Runway Type Ident Frequency Range Bearing (true) Bearing (mag) Slope Elevation
22 Localiser OT 109.50 MHz 18 nm / 33 km 223.06° 223.18° - 322 ft / 98 m (AMSL)
22 Glidescope OT 109.50 MHz 10 nm / 19 km 223.07° 223.19° 3.00° 313 ft / 95 m (AMSL)
22 DME OT 109.50 MHz 18 nm / 33 km - - - 354 ft / 108 m (AMSL)

Map

Weather


0- 5 10 15 20 25 30 35+ Temperature / ° C

Clouds and Precipitation
Forecast for 2018-05-27 00:00 UTC. Updated 3 hours ago

Ground ~20,000 ft ~40,000 ft Winds

METAR

LFOH 270130Z AUTO 10005KT CAVOK 18/13 Q1014

TAF

TAF LFOH 261800Z 2618/2712 CNL

Frequencies

Recorded 126.17 MHz ATIS
Approach 120.35 MHz DEAUVILLE APP
Tower 135.20 MHz LE HAVRE TWR
Warning: Do not use this data for real-world aviation or navigation. No guarantee of current accuracy is given.